Time;durP1;ratioP1;P1;durP2;ratioP2;P2;SDS_P1;SDS_P2;PMS_P1;PMS_P2;Temp;Humidity;BMP_temperature;BMP_pressure;BME280_temperature;BME280_humidity;BME280_pressure;Samples;Min_cycle;Max_cycle;Signal;HPM_P1;HPM_P2
2021/01/05 00:00:50;;;;;;;5.75;4.57;;;7.20;99.90;;;;;;5034426;28;20509;-75
2021/01/05 00:03:16;;;;;;;5.75;4.38;;;7.20;99.90;;;;;;5023144;28;20162;-76
2021/01/05 00:05:42;;;;;;;8.98;4.70;;;7.20;99.90;;;;;;5034184;28;20133;-75
2021/01/05 00:08:08;;;;;;;6.88;4.63;;;7.20;99.90;;;;;;5045190;28;20108;-76
2021/01/05 00:10:33;;;;;;;6.15;3.80;;;7.20;99.90;;;;;;5054157;28;20017;-77
2021/01/05 00:12:59;;;;;;;8.23;4.45;;;7.10;99.90;;;;;;5054368;28;20104;-76
2021/01/05 00:15:25;;;;;;;6.43;4.18;;;7.10;99.90;;;;;;5054288;28;20037;-75
2021/01/05 00:17:51;;;;;;;6.15;4.35;;;7.10;99.90;;;;;;5053230;28;20040;-75
2021/01/05 00:20:29;;;;;;;6.50;3.90;;;7.10;99.90;;;;;;5053073;28;20033;-75
2021/01/05 00:22:55;;;;;;;4.85;3.90;;;7.00;99.90;;;;;;5054082;28;20568;-76
2021/01/05 00:25:22;;;;;;;5.65;4.28;;;7.00;99.90;;;;;;5054146;28;20083;-77
2021/01/05 00:27:48;;;;;;;5.50;4.18;;;6.90;99.90;;;;;;5054008;28;20021;-74
2021/01/05 00:30:22;;;;;;;7.82;3.90;;;6.90;99.90;;;;;;5053908;28;20025;-78
2021/01/05 00:32:50;;;;;;;5.03;3.53;;;7.00;99.90;;;;;;5054020;28;20025;-76
2021/01/05 00:35:21;;;;;;;7.03;4.00;;;7.00;99.90;;;;;;5053981;28;20021;-75
2021/01/05 00:37:48;;;;;;;5.55;3.70;;;7.00;99.90;;;;;;5053846;28;20029;-76
2021/01/05 00:40:14;;;;;;;6.28;3.78;;;7.00;99.90;;;;;;5053938;28;20040;-76
2021/01/05 00:42:41;;;;;;;7.43;4.35;;;7.10;99.90;;;;;;5053356;28;20122;-77
2021/01/05 00:45:08;;;;;;;9.15;4.30;;;7.10;99.90;;;;;;5053603;28;20057;-77
2021/01/05 00:47:33;;;;;;;8.05;4.20;;;7.10;99.90;;;;;;5052854;28;20477;-77
2021/01/05 00:49:59;;;;;;;7.28;4.43;;;7.20;99.90;;;;;;5053615;28;20021;-75
2021/01/05 00:52:25;;;;;;;6.68;4.10;;;7.20;99.90;;;;;;5053404;28;20189;-76
2021/01/05 00:54:50;;;;;;;5.45;3.67;;;7.20;99.90;;;;;;5053032;28;20092;-75
2021/01/05 00:57:16;;;;;;;6.70;4.07;;;7.20;99.90;;;;;;5053335;28;20035;-75
2021/01/05 00:59:42;;;;;;;5.82;4.03;;;7.30;99.90;;;;;;5039050;28;20452;-77
2021/01/05 01:02:07;;;;;;;8.30;4.15;;;7.30;99.90;;;;;;5053513;28;20055;-78
2021/01/05 01:04:36;;;;;;;5.10;3.70;;;7.30;99.90;;;;;;5053465;28;20025;-76
2021/01/05 01:07:03;;;;;;;5.53;3.70;;;7.40;99.90;;;;;;5050728;28;20071;-75
2021/01/05 01:09:29;;;;;;;6.63;3.90;;;7.40;99.90;;;;;;5033096;28;20025;-75
2021/01/05 01:12:00;;;;;;;5.40;4.10;;;7.50;99.90;;;;;;5033210;28;20021;-76
2021/01/05 01:14:26;;;;;;;5.00;3.92;;;7.50;99.90;;;;;;5033309;28;20024;-76
2021/01/05 01:16:52;;;;;;;4.97;3.65;;;7.50;99.90;;;;;;5033036;28;20026;-76
2021/01/05 01:19:18;;;;;;;7.63;4.07;;;7.50;99.90;;;;;;5033091;28;20116;-77
2021/01/05 01:21:45;;;;;;;10.55;4.45;;;7.60;99.90;;;;;;5032982;28;20024;-76
2021/01/05 01:24:11;;;;;;;5.75;4.10;;;7.60;99.90;;;;;;5032780;28;20025;-76
2021/01/05 01:26:37;;;;;;;5.40;4.03;;;7.60;99.90;;;;;;5032990;28;20080;-76
2021/01/05 01:29:02;;;;;;;5.20;3.83;;;7.60;99.90;;;;;;5033008;28;20491;-77
2021/01/05 01:31:29;;;;;;;7.63;4.18;;;7.50;99.90;;;;;;5033021;28;20022;-77
2021/01/05 01:33:54;;;;;;;6.05;4.35;;;7.50;99.90;;;;;;5018725;28;20160;-75
2021/01/05 01:36:20;;;;;;;6.07;3.88;;;7.50;99.90;;;;;;5031959;28;20100;-75
2021/01/05 01:38:46;;;;;;;9.35;4.70;;;7.50;99.90;;;;;;5036298;28;20419;-77
2021/01/05 01:41:11;;;;;;;8.65;4.70;;;7.50;99.90;;;;;;5038913;28;20017;-76
2021/01/05 01:43:37;;;;;;;7.10;4.18;;;7.50;99.90;;;;;;5048007;28;20111;-76
2021/01/05 01:46:03;;;;;;;6.22;4.75;;;7.50;99.90;;;;;;5043337;28;20035;-76
2021/01/05 01:48:29;;;;;;;8.50;5.20;;;7.50;99.90;;;;;;5052569;28;20098;-76
2021/01/05 01:50:54;;;;;;;6.28;4.32;;;7.50;99.90;;;;;;5052839;28;20017;-77
2021/01/05 01:53:40;;;;;;;8.52;5.15;;;7.50;99.90;;;;;;5038419;28;20083;-75
2021/01/05 01:56:42;;;;;;;8.20;5.18;;;7.50;99.90;;;;;;5052495;28;20049;-76
2021/01/05 01:59:37;;;;;;;9.15;5.30;;;7.50;99.90;;;;;;5023609;28;20179;-76
2021/01/05 02:02:10;;;;;;;6.05;4.60;;;7.50;99.90;;;;;;5052597;28;20388;-76
2021/01/05 02:05:23;;;;;;;7.22;4.50;;;7.40;99.90;;;;;;5052671;28;20064;-76
2021/01/05 02:08:12;;;;;;;6.90;4.72;;;7.40;99.90;;;;;;4971451;28;20434;-76
2021/01/05 02:10:38;;;;;;;8.00;4.80;;;7.40;99.90;;;;;;4971160;28;20077;-76
2021/01/05 02:13:28;;;;;;;8.10;4.90;;;7.40;99.90;;;;;;5021927;28;20033;-76
2021/01/05 02:16:05;;;;;;;7.07;4.63;;;7.40;99.90;;;;;;5052021;28;20079;-76
2021/01/05 02:18:46;;;;;;;11.20;5.25;;;7.40;99.90;;;;;;5051991;28;20035;-77
2021/01/05 02:22:00;;;;;;;7.03;4.73;;;7.30;99.90;;;;;;5052383;28;20566;-77
2021/01/05 02:24:42;;;;;;;6.35;4.63;;;7.30;99.90;;;;;;5007937;28;20276;-77
2021/01/05 02:27:09;;;;;;;8.07;5.32;;;7.30;99.90;;;;;;5052260;28;20061;-76
2021/01/05 02:30:01;;;;;;;7.25;5.03;;;7.30;99.90;;;;;;5052387;28;20147;-76
2021/01/05 02:33:06;;;;;;;7.53;5.10;;;7.30;99.90;;;;;;5011971;28;20136;-77
2021/01/05 02:35:46;;;;;;;10.57;5.05;;;7.30;99.90;;;;;;5035023;28;20055;-76
2021/01/05 02:38:53;;;;;;;7.00;5.00;;;7.20;99.90;;;;;;5051990;28;20033;-77
2021/01/05 02:41:37;;;;;;;6.68;4.75;;;7.20;99.90;;;;;;5051026;28;20108;-77
2021/01/05 02:44:30;;;;;;;7.13;4.88;;;7.20;99.90;;;;;;5041691;28;20113;-75
2021/01/05 02:47:05;;;;;;;6.85;4.85;;;7.10;99.90;;;;;;5038433;28;20516;-77
2021/01/05 02:49:53;;;;;;;8.15;5.22;;;7.10;99.90;;;;;;5052417;28;20037;-76
2021/01/05 02:53:03;;;;;;;10.25;5.30;;;7.00;99.90;;;;;;5029030;28;20100;-76
2021/01/05 02:56:27;;;;;;;6.93;4.85;;;7.00;99.90;;;;;;4958316;28;20035;-76
2021/01/05 02:59:07;;;;;;;6.75;5.30;;;7.00;99.90;;;;;;4920569;28;20074;-76
2021/01/05 03:01:54;;;;;;;6.05;4.70;;;6.90;99.90;;;;;;5052264;28;20033;-78
2021/01/05 03:04:20;;;;;;;13.18;5.30;;;6.90;99.90;;;;;;5051581;28;20024;-76
2021/01/05 03:07:13;;;;;;;10.98;5.22;;;6.80;99.90;;;;;;5051662;28;20024;-76
2021/01/05 03:09:49;;;;;;;6.85;5.10;;;6.80;99.90;;;;;;5049727;28;20036;-76
2021/01/05 03:12:39;;;;;;;8.35;5.40;;;6.80;99.90;;;;;;5055878;28;20025;-77
2021/01/05 03:15:38;;;;;;;8.02;5.55;;;6.70;99.90;;;;;;5056007;28;20021;-76
2021/01/05 03:18:19;;;;;;;8.70;5.25;;;6.60;99.90;;;;;;5036524;28;20530;-76
2021/01/05 03:20:55;;;;;;;8.32;5.88;;;6.70;99.90;;;;;;5055814;28;20041;-75
2021/01/05 03:23:22;;;;;;;6.93;4.85;;;6.60;99.90;;;;;;5055871;28;20029;-76
2021/01/05 03:25:50;;;;;;;11.93;5.70;;;6.60;99.90;;;;;;5055448;28;20112;-76
2021/01/05 03:28:22;;;;;;;8.75;5.45;;;6.60;99.90;;;;;;5055571;28;20021;-76
2021/01/05 03:31:06;;;;;;;7.95;5.38;;;6.60;99.90;;;;;;5055418;28;20132;-76
2021/01/05 03:33:31;;;;;;;6.45;4.30;;;6.60;99.90;;;;;;5055490;28;20427;-76
2021/01/05 03:35:57;;;;;;;9.20;5.28;;;6.60;99.90;;;;;;5054829;28;20025;-78
2021/01/05 03:38:23;;;;;;;7.28;4.65;;;6.50;99.90;;;;;;5055109;28;20075;-77
2021/01/05 03:40:49;;;;;;;15.68;5.43;;;6.50;99.90;;;;;;5055240;28;20127;-76
2021/01/05 03:43:14;;;;;;;7.45;5.20;;;6.50;99.90;;;;;;5051548;28;20080;-76
2021/01/05 03:45:40;;;;;;;7.28;4.47;;;6.40;99.90;;;;;;5045000;28;20036;-77
2021/01/05 03:48:06;;;;;;;7.03;5.00;;;6.50;99.90;;;;;;5055047;28;20388;-76
2021/01/05 03:50:32;;;;;;;7.32;5.00;;;6.50;99.90;;;;;;5055065;28;20019;-76
2021/01/05 03:52:58;;;;;;;6.78;4.45;;;6.40;99.90;;;;;;5055230;28;20029;-76
2021/01/05 03:55:23;;;;;;;8.00;4.45;;;6.40;99.90;;;;;;5054982;28;20152;-75
2021/01/05 03:57:49;;;;;;;9.80;4.90;;;6.50;99.90;;;;;;5055411;28;20384;-75
2021/01/05 04:00:25;;;;;;;5.63;4.43;;;6.50;99.90;;;;;;5054522;28;20056;-75
2021/01/05 04:02:55;;;;;;;8.18;4.82;;;6.40;99.90;;;;;;5054764;28;20071;-75
2021/01/05 04:05:22;;;;;;;5.65;4.43;;;6.40;99.90;;;;;;5054715;28;20048;-76
2021/01/05 04:07:47;;;;;;;6.70;4.47;;;6.40;99.90;;;;;;5054529;28;20116;-78
2021/01/05 04:10:13;;;;;;;5.70;4.63;;;6.40;99.90;;;;;;5054801;28;20448;-76
2021/01/05 04:12:40;;;;;;;7.38;4.68;;;6.40;99.90;;;;;;5054789;28;20108;-76
2021/01/05 04:15:10;;;;;;;7.05;5.80;;;6.40;99.90;;;;;;5054604;28;20161;-78
2021/01/05 04:17:36;;;;;;;6.93;4.78;;;6.40;99.90;;;;;;5054527;28;20468;-76
2021/01/05 04:20:04;;;;;;;10.52;5.13;;;6.40;99.90;;;;;;5054481;28;20068;-76
2021/01/05 04:22:29;;;;;;;6.18;4.55;;;6.40;99.90;;;;;;5016969;28;20036;-76
2021/01/05 04:24:55;;;;;;;6.28;4.90;;;6.40;99.90;;;;;;5045274;28;20021;-76
2021/01/05 04:27:21;;;;;;;10.10;5.47;;;6.40;99.90;;;;;;5054345;28;20058;-77
2021/01/05 04:29:46;;;;;;;6.40;4.72;;;6.40;99.90;;;;;;5054432;28;20023;-76
2021/01/05 04:32:12;;;;;;;5.85;4.68;;;6.40;99.90;;;;;;5054281;28;20107;-76
2021/01/05 04:34:38;;;;;;;7.55;4.65;;;6.50;99.90;;;;;;5054359;28;20595;-76
2021/01/05 04:37:04;;;;;;;8.73;5.20;;;6.50;99.90;;;;;;5054017;28;20104;-76
2021/01/05 04:39:29;;;;;;;8.55;4.90;;;6.60;99.90;;;;;;5053654;28;20039;-76
2021/01/05 04:42:01;;;;;;;6.10;4.13;;;6.60;99.90;;;;;;5053991;28;20056;-78
2021/01/05 04:44:30;;;;;;;7.15;4.65;;;6.50;99.90;;;;;;5018822;28;20029;-75
2021/01/05 04:47:21;;;;;;;6.13;4.18;;;6.50;99.90;;;;;;5040182;28;20025;-75
2021/01/05 04:49:58;;;;;;;8.00;3.67;;;6.50;99.90;;;;;;5052448;28;20025;-77
2021/01/05 04:52:31;;;;;;;6.03;4.20;;;6.50;99.90;;;;;;5042951;28;20021;-76
2021/01/05 04:55:05;;;;;;;7.03;3.80;;;6.50;99.90;;;;;;5053821;28;20362;-76
2021/01/05 04:57:35;;;;;;;5.25;3.78;;;6.50;99.90;;;;;;5053958;28;20017;-75
2021/01/05 05:00:07;;;;;;;5.15;2.90;;;6.50;99.90;;;;;;5053570;28;20439;-76
2021/01/05 05:02:56;;;;;;;5.82;3.42;;;6.60;99.90;;;;;;5053778;28;20017;-76
2021/01/05 05:05:25;;;;;;;4.97;3.25;;;6.60;99.90;;;;;;5053446;28;20024;-77
2021/01/05 05:08:08;;;;;;;4.55;3.35;;;6.70;99.90;;;;;;5053531;28;20464;-77
2021/01/05 05:10:40;;;;;;;5.60;3.42;;;6.60;99.90;;;;;;5016841;28;20022;-75
2021/01/05 05:13:28;;;;;;;4.60;3.30;;;6.70;99.90;;;;;;5044940;28;20067;-79
2021/01/05 05:16:07;;;;;;;5.47;3.53;;;6.70;99.90;;;;;;5053703;28;20164;-77
2021/01/05 05:18:44;;;;;;;4.72;3.13;;;6.70;99.90;;;;;;5053131;28;20040;-76
2021/01/05 05:21:13;;;;;;;6.35;3.40;;;6.70;99.90;;;;;;5041240;28;20033;-77
2021/01/05 05:23:52;;;;;;;4.28;3.15;;;6.80;99.90;;;;;;5053107;28;20017;-76
2021/01/05 05:26:58;;;;;;;4.25;3.20;;;6.80;99.90;;;;;;5053422;28;20742;-76
2021/01/05 05:29:29;;;;;;;7.65;3.30;;;6.80;99.90;;;;;;5053012;28;20468;-77
2021/01/05 05:31:59;;;;;;;4.50;3.33;;;6.80;99.90;;;;;;5053393;28;20519;-76
2021/01/05 05:34:43;;;;;;;3.97;3.20;;;6.80;99.90;;;;;;5052483;28;20124;-77
2021/01/05 05:37:36;;;;;;;2.95;2.65;;;6.70;99.90;;;;;;5052937;28;20021;-76
2021/01/05 05:40:26;;;;;;;2.47;2.20;;;6.80;99.90;;;;;;5031003;28;20052;-76
2021/01/05 05:43:24;;;;;;;2.38;2.03;;;6.80;99.90;;;;;;5032041;28;20374;-77
2021/01/05 05:46:00;;;;;;;4.28;2.35;;;6.80;99.90;;;;;;5033173;28;20033;-77
2021/01/05 05:48:25;;;;;;;2.67;2.15;;;6.90;99.90;;;;;;5052762;28;20015;-77
2021/01/05 05:51:11;;;;;;;4.00;2.30;;;6.90;99.90;;;;;;5052794;28;20447;-76
2021/01/05 05:53:45;;;;;;;2.30;2.10;;;6.90;99.90;;;;;;5052529;28;20035;-76
2021/01/05 05:56:14;;;;;;;2.80;2.30;;;6.90;99.90;;;;;;5052824;28;20036;-76
2021/01/05 05:58:52;;;;;;;2.75;2.20;;;6.90;99.90;;;;;;5052589;28;20064;-77
2021/01/05 06:01:29;;;;;;;2.65;2.05;;;6.80;99.90;;;;;;5052785;28;20071;-77
2021/01/05 06:03:57;;;;;;;2.28;2.08;;;6.90;99.90;;;;;;5052403;28;20025;-76
2021/01/05 06:06:23;;;;;;;4.90;2.05;;;6.90;99.90;;;;;;5022611;28;20029;-77
2021/01/05 06:08:49;;;;;;;3.60;2.60;;;6.90;99.90;;;;;;5050578;28;20052;-76
2021/01/05 06:11:15;;;;;;;4.55;2.75;;;6.90;99.90;;;;;;5052683;28;20052;-76
2021/01/05 06:13:41;;;;;;;4.57;3.10;;;6.90;99.90;;;;;;5052393;28;20484;-75
2021/01/05 06:16:06;;;;;;;7.75;2.80;;;6.90;99.90;;;;;;5052552;28;20025;-76
2021/01/05 06:18:32;;;;;;;3.10;2.80;;;6.80;99.90;;;;;;5052314;28;20535;-76
2021/01/05 06:20:58;;;;;;;10.68;3.40;;;6.80;99.90;;;;;;5052640;28;20021;-77
2021/01/05 06:23:24;;;;;;;5.03;3.20;;;6.80;99.90;;;;;;5053012;28;20017;-76
2021/01/05 06:25:49;;;;;;;8.43;3.72;;;6.80;99.90;;;;;;5033685;28;20026;-76
2021/01/05 06:28:15;;;;;;;4.30;3.53;;;6.70;99.90;;;;;;5032255;28;20025;-76
2021/01/05 06:30:41;;;;;;;5.35;4.40;;;6.60;99.90;;;;;;5032025;28;20057;-76
2021/01/05 06:33:07;;;;;;;7.15;3.65;;;6.60;99.90;;;;;;5032287;28;20507;-76
2021/01/05 06:35:33;;;;;;;6.65;4.32;;;6.50;99.90;;;;;;5031833;28;20025;-77
2021/01/05 06:37:59;;;;;;;11.25;3.83;;;6.50;99.90;;;;;;5031866;28;20030;-77
2021/01/05 06:40:27;;;;;;;6.75;3.40;;;6.50;99.90;;;;;;5032125;28;20033;-76
2021/01/05 06:42:53;;;;;;;11.90;5.13;;;6.60;99.90;;;;;;5032205;28;20021;-77
2021/01/05 06:45:28;;;;;;;8.23;3.80;;;6.60;99.90;;;;;;5056136;28;20028;-76
2021/01/05 06:47:54;;;;;;;8.18;3.38;;;6.60;99.90;;;;;;5058401;28;20473;-77
2021/01/05 06:50:23;;;;;;;5.05;3.55;;;6.60;99.90;;;;;;5058542;28;20020;-77
2021/01/05 06:52:49;;;;;;;5.07;3.05;;;6.60;99.90;;;;;;5058600;28;20346;-76
2021/01/05 06:55:14;;;;;;;5.07;3.03;;;6.70;99.90;;;;;;5058361;28;20021;-76
2021/01/05 06:57:40;;;;;;;3.50;2.90;;;6.70;99.90;;;;;;5058418;28;20025;-77
2021/01/05 07:00:15;;;;;;;8.25;3.88;;;6.70;99.90;;;;;;5058304;28;20080;-77
2021/01/05 07:02:41;;;;;;;5.80;3.35;;;6.80;99.90;;;;;;5031531;28;20024;-76
2021/01/05 07:05:07;;;;;;;4.40;3.50;;;6.90;99.90;;;;;;5022304;28;20444;-77
2021/01/05 07:07:33;;;;;;;6.43;3.17;;;6.90;99.90;;;;;;5058871;28;20017;-78
2021/01/05 07:09:59;;;;;;;3.97;2.75;;;7.00;99.90;;;;;;5058778;28;20385;-77
2021/01/05 07:12:24;;;;;;;4.70;3.38;;;7.00;99.90;;;;;;5058781;28;20028;-76
2021/01/05 07:14:50;;;;;;;3.78;3.33;;;7.10;99.90;;;;;;5058542;28;20516;-77
2021/01/05 07:17:16;;;;;;;4.68;2.60;;;7.30;99.90;;;;;;5058574;28;20377;-77
2021/01/05 07:19:41;;;;;;;4.85;3.03;;;7.60;99.90;;;;;;5058733;28;20056;-78
2021/01/05 07:22:08;;;;;;;4.80;2.90;;;7.90;99.90;;;;;;5058796;28;20034;-78
2021/01/05 07:24:33;;;;;;;7.90;2.90;;;8.20;99.90;;;;;;5058807;28;20025;-77
2021/01/05 07:26:59;;;;;;;4.15;2.53;;;8.30;99.90;;;;;;5058772;28;20465;-79
2021/01/05 07:29:25;;;;;;;5.32;2.78;;;8.40;99.90;;;;;;5058319;28;20013;-77
2021/01/05 07:31:51;;;;;;;4.88;2.30;;;8.30;99.90;;;;;;5058381;28;20487;-78
2021/01/05 07:34:17;;;;;;;5.22;2.80;;;8.20;99.90;;;;;;5058236;28;20017;-76
2021/01/05 07:37:05;;;;;;;3.72;3.10;;;8.20;99.90;;;;;;5030979;28;20144;-78
2021/01/05 07:39:33;;;;;;;5.60;3.22;;;8.20;99.90;;;;;;5020643;28;20034;-77
2021/01/05 07:42:20;;;;;;;7.50;3.15;;;8.20;99.90;;;;;;5049626;28;20017;-77
2021/01/05 07:44:48;;;;;;;9.80;3.65;;;8.50;99.90;;;;;;5018873;28;20477;-76
2021/01/05 07:47:15;;;;;;;4.18;3.33;;;8.70;99.90;;;;;;5058506;28;20021;-77
2021/01/05 07:49:41;;;;;;;5.05;3.67;;;8.70;99.90;;;;;;5058151;28;20036;-79
2021/01/05 07:52:32;;;;;;;7.18;3.40;;;8.70;99.90;;;;;;5057232;28;20044;-77
2021/01/05 07:54:58;;;;;;;8.75;3.28;;;8.70;99.90;;;;;;5039518;28;20400;-77
2021/01/05 07:57:24;;;;;;;5.35;3.30;;;8.90;99.90;;;;;;5047150;28;20013;-77
2021/01/05 07:59:50;;;;;;;7.00;3.53;;;9.00;99.90;;;;;;5034882;28;20052;-77
2021/01/05 08:02:15;;;;;;;9.32;3.58;;;9.20;99.90;;;;;;5041315;28;20028;-78
2021/01/05 08:04:41;;;;;;;4.05;2.92;;;9.20;99.90;;;;;;5042354;28;20017;-78
2021/01/05 08:07:08;;;;;;;5.95;3.17;;;9.30;99.90;;;;;;5035044;28;20018;-77
2021/01/05 08:09:37;;;;;;;11.10;3.53;;;9.50;99.90;;;;;;5034751;28;20029;-78
2021/01/05 08:12:03;;;;;;;4.72;3.20;;;9.60;99.90;;;;;;5034642;28;20032;-77
2021/01/05 08:14:28;;;;;;;6.32;3.88;;;9.60;99.90;;;;;;5034961;28;20060;-77
2021/01/05 08:16:54;;;;;;;7.90;3.38;;;9.70;99.90;;;;;;5034645;28;20122;-77
2021/01/05 08:19:20;;;;;;;7.25;3.10;;;9.70;99.90;;;;;;5034596;28;20080;-77
2021/01/05 08:21:45;;;;;;;15.70;4.05;;;9.60;99.90;;;;;;5034725;28;20022;-78
2021/01/05 08:24:11;;;;;;;10.70;4.03;;;9.60;99.90;;;;;;5034595;28;20174;-78
2021/01/05 08:26:37;;;;;;;7.18;3.92;;;9.50;99.90;;;;;;5034364;28;20026;-76
2021/01/05 08:29:03;;;;;;;8.88;4.25;;;9.50;99.90;;;;;;5022905;28;20049;-76
2021/01/05 08:31:35;;;;;;;5.63;3.05;;;9.60;99.90;;;;;;5034234;28;20021;-78
2021/01/05 08:34:01;;;;;;;7.03;3.97;;;9.80;99.90;;;;;;5034061;28;20014;-78
2021/01/05 08:36:28;;;;;;;6.75;3.70;;;9.80;99.90;;;;;;5034217;28;20109;-77
2021/01/05 08:38:54;;;;;;;7.32;3.30;;;9.70;99.90;;;;;;5024117;28;20096;-76
2021/01/05 08:41:20;;;;;;;4.40;2.67;;;9.60;99.90;;;;;;5034422;28;20036;-77
2021/01/05 08:43:46;;;;;;;7.78;3.70;;;9.50;99.90;;;;;;5042018;28;20025;-76
2021/01/05 08:46:21;;;;;;;4.15;2.90;;;9.50;99.90;;;;;;5054509;28;20120;-78
2021/01/05 08:48:47;;;;;;;3.22;2.35;;;9.50;99.90;;;;;;5054667;28;20024;-77
2021/01/05 08:51:13;;;;;;;7.15;2.80;;;9.70;99.90;;;;;;5054186;28;20028;-77
2021/01/05 08:53:38;;;;;;;4.13;2.40;;;10.00;99.90;;;;;;5053952;28;20032;-77
2021/01/05 08:56:04;;;;;;;3.20;2.30;;;10.30;99.90;;;;;;5054387;28;20087;-77
2021/01/05 08:58:30;;;;;;;3.72;2.20;;;10.40;99.90;;;;;;5053695;28;20116;-77
2021/01/05 09:00:55;;;;;;;3.75;2.35;;;10.40;99.90;;;;;;5054081;28;20126;-77
2021/01/05 09:03:21;;;;;;;3.78;2.40;;;10.50;99.90;;;;;;5022131;28;20042;-77
2021/01/05 09:05:47;;;;;;;4.50;2.72;;;10.50;99.90;;;;;;5049320;28;20445;-77
2021/01/05 09:08:14;;;;;;;4.95;3.17;;;10.60;99.90;;;;;;5052034;28;20079;-76
2021/01/05 09:10:39;;;;;;;7.75;2.58;;;10.60;99.90;;;;;;5047427;28;20029;-78
2021/01/05 09:13:05;;;;;;;3.45;2.03;;;10.50;99.90;;;;;;5029931;28;20432;-77
2021/01/05 09:15:31;;;;;;;3.45;2.47;;;10.60;99.90;;;;;;5033039;28;20075;-77
2021/01/05 09:17:57;;;;;;;3.28;2.05;;;10.70;99.90;;;;;;5051404;28;20025;-77
2021/01/05 09:20:24;;;;;;;5.70;3.13;;;11.20;99.90;;;;;;5042853;28;20048;-76
2021/01/05 09:22:50;;;;;;;4.70;2.10;;;11.50;99.90;;;;;;5047483;28;20022;-78
2021/01/05 09:25:16;;;;;;;7.15;2.97;;;11.80;99.90;;;;;;5039767;28;20442;-77
2021/01/05 09:27:42;;;;;;;7.88;3.13;;;11.60;99.90;;;;;;5050307;28;20051;-78
2021/01/05 09:30:14;;;;;;;2.80;2.40;;;11.50;99.90;;;;;;5051695;28;20469;-77
2021/01/05 09:32:39;;;;;;;3.22;2.08;;;11.30;99.90;;;;;;5048908;28;20059;-78
2021/01/05 09:35:06;;;;;;;2.08;1.70;;;11.00;99.90;;;;;;5052629;28;20025;-77
2021/01/05 09:37:32;;;;;;;7.57;1.77;;;10.80;99.90;;;;;;5030791;28;20025;-78
2021/01/05 09:39:58;;;;;;;3.97;1.88;;;10.60;99.90;;;;;;5043802;28;20033;-77
2021/01/05 09:42:23;;;;;;;3.40;2.10;;;10.40;99.90;;;;;;5048565;28;20115;-77
2021/01/05 09:44:50;;;;;;;4.35;2.05;;;10.20;99.90;;;;;;5044904;28;20029;-78
2021/01/05 09:47:19;;;;;;;2.75;1.98;;;9.90;99.90;;;;;;5049501;28;20017;-77
2021/01/05 09:49:49;;;;;;;2.72;2.08;;;9.70;99.90;;;;;;5049011;28;20495;-77
2021/01/05 09:52:16;;;;;;;3.65;2.00;;;9.60;99.90;;;;;;5050967;28;20013;-78
2021/01/05 09:54:47;;;;;;;2.22;1.98;;;9.50;99.90;;;;;;5050015;28;20029;-77
2021/01/05 09:57:12;;;;;;;3.07;1.90;;;9.40;99.90;;;;;;5045305;28;20021;-77
2021/01/05 09:59:38;;;;;;;2.20;1.90;;;9.30;99.90;;;;;;5039020;28;20045;-78
2021/01/05 10:02:05;;;;;;;2.03;1.73;;;9.30;99.90;;;;;;5041559;28;20365;-78
2021/01/05 10:04:30;;;;;;;6.45;2.10;;;9.30;99.90;;;;;;5048257;28;20085;-77
2021/01/05 10:06:56;;;;;;;3.72;2.20;;;9.20;99.90;;;;;;5046510;28;20029;-76
2021/01/05 10:09:22;;;;;;;2.92;1.80;;;9.30;99.90;;;;;;5022139;28;20112;-77
2021/01/05 10:11:48;;;;;;;3.10;2.08;;;9.30;99.90;;;;;;5045545;28;20039;-78
2021/01/05 10:14:20;;;;;;;2.95;1.80;;;9.20;99.90;;;;;;5048795;28;20068;-78
2021/01/05 10:16:53;;;;;;;2.38;1.92;;;9.30;99.90;;;;;;5048830;28;20040;-77
2021/01/05 10:19:19;;;;;;;6.50;2.30;;;9.30;99.90;;;;;;5042242;28;20024;-78
2021/01/05 10:21:45;;;;;;;4.32;2.03;;;9.30;99.90;;;;;;5024221;28;20029;-78
2021/01/05 10:24:12;;;;;;;2.53;1.88;;;9.40;99.90;;;;;;5037243;28;20045;-77
2021/01/05 10:26:38;;;;;;;4.53;1.95;;;9.40;99.90;;;;;;5048784;28;20072;-77
2021/01/05 10:29:05;;;;;;;2.05;1.50;;;9.40;99.90;;;;;;5045938;28;20042;-76
2021/01/05 10:31:42;;;;;;;2.85;1.48;;;9.50;99.90;;;;;;5040034;28;20503;-77
2021/01/05 10:34:11;;;;;;;2.83;1.90;;;9.50;99.90;;;;;;5017253;28;20029;-76
2021/01/05 10:36:37;;;;;;;2.28;1.95;;;9.50;99.90;;;;;;5028906;28;20021;-77
2021/01/05 10:39:05;;;;;;;5.10;2.50;;;9.50;99.90;;;;;;5043271;28;20055;-77
2021/01/05 10:41:36;;;;;;;3.55;2.20;;;9.50;99.90;;;;;;5029892;28;20017;-78
2021/01/05 10:44:02;;;;;;;5.28;2.42;;;9.50;99.90;;;;;;5022919;28;20036;-78
2021/01/05 10:46:27;;;;;;;5.88;2.92;;;9.50;99.90;;;;;;5028653;28;20025;-78
2021/01/05 10:48:53;;;;;;;5.68;3.28;;;9.50;99.90;;;;;;5047204;28;20044;-77
2021/01/05 10:51:19;;;;;;;6.22;3.15;;;9.50;99.90;;;;;;5044312;28;20394;-77
2021/01/05 10:53:45;;;;;;;7.03;3.00;;;9.40;99.90;;;;;;5043216;28;20033;-77
2021/01/05 10:56:15;;;;;;;6.63;3.20;;;9.40;99.90;;;;;;5044730;28;20017;-77
2021/01/05 10:58:40;;;;;;;4.05;2.45;;;9.30;99.90;;;;;;5042800;28;20029;-79
2021/01/05 11:01:07;;;;;;;4.80;2.60;;;9.20;99.90;;;;;;5044303;28;20366;-78
2021/01/05 11:03:33;;;;;;;6.82;3.10;;;9.20;99.90;;;;;;5044954;28;20013;-79
2021/01/05 11:05:58;;;;;;;3.75;2.97;;;9.20;99.90;;;;;;5047919;28;20032;-79
2021/01/05 11:08:24;;;;;;;4.28;2.17;;;9.20;99.90;;;;;;5048377;28;20112;-78
2021/01/05 11:10:50;;;;;;;2.05;1.80;;;9.20;99.90;;;;;;5046065;28;20024;-77
2021/01/05 11:13:16;;;;;;;4.15;1.85;;;9.20;99.90;;;;;;5047933;28;20056;-76
2021/01/05 11:15:41;;;;;;;3.85;2.38;;;9.30;99.90;;;;;;5044831;28;20025;-77
2021/01/05 11:18:07;;;;;;;3.25;2.38;;;9.30;99.90;;;;;;5045541;28;20028;-76
2021/01/05 11:20:33;;;;;;;3.55;2.03;;;9.30;99.90;;;;;;5048943;28;20033;-77
2021/01/05 11:22:59;;;;;;;4.45;2.70;;;9.30;99.90;;;;;;5032070;28;20543;-77
2021/01/05 11:25:25;;;;;;;8.18;2.30;;;9.30;99.90;;;;;;5046790;28;20025;-78
2021/01/05 11:27:50;;;;;;;5.22;2.63;;;9.30;99.90;;;;;;5046506;28;20064;-76
2021/01/05 11:30:24;;;;;;;3.92;2.53;;;9.30;99.90;;;;;;5045930;28;20017;-78
2021/01/05 11:32:49;;;;;;;4.68;2.83;;;9.30;99.90;;;;;;5030081;28;20029;-76
2021/01/05 11:35:16;;;;;;;4.70;2.45;;;9.20;99.90;;;;;;5050341;28;20035;-76
2021/01/05 11:37:42;;;;;;;2.60;2.00;;;9.20;99.90;;;;;;5049275;28;20536;-77
2021/01/05 11:40:09;;;;;;;2.80;2.15;;;9.20;99.90;;;;;;5054106;28;20040;-77
2021/01/05 11:42:35;;;;;;;2.75;2.33;;;9.20;99.90;;;;;;5049477;28;20052;-76
2021/01/05 11:45:03;;;;;;;4.60;2.30;;;9.20;99.90;;;;;;5051692;28;20106;-77
2021/01/05 11:47:30;;;;;;;2.92;1.98;;;9.20;99.90;;;;;;5050603;28;20155;-76
2021/01/05 11:49:56;;;;;;;3.03;1.98;;;9.20;99.90;;;;;;5049203;28;20112;-77
2021/01/05 11:52:22;;;;;;;3.33;2.30;;;9.30;99.90;;;;;;5045364;28;20029;-75
2021/01/05 11:54:48;;;;;;;5.70;2.60;;;9.30;99.90;;;;;;5050467;28;20032;-77
2021/01/05 11:57:14;;;;;;;4.63;2.40;;;9.30;99.90;;;;;;5051516;28;20016;-76
2021/01/05 11:59:39;;;;;;;4.53;2.95;;;9.40;99.90;;;;;;5041205;28;20104;-77
2021/01/05 12:02:05;;;;;;;7.60;2.20;;;9.40;99.90;;;;;;5034028;28;20362;-78
2021/01/05 12:04:31;;;;;;;9.65;2.47;;;9.40;99.90;;;;;;5032520;28;20061;-76
2021/01/05 12:06:57;;;;;;;4.00;2.63;;;9.40;99.90;;;;;;5033797;28;20112;-76
2021/01/05 12:09:25;;;;;;;3.13;2.38;;;9.40;99.90;;;;;;5033701;28;20480;-77
2021/01/05 12:11:58;;;;;;;3.30;2.50;;;9.50;99.90;;;;;;5034195;28;20024;-77
2021/01/05 12:14:24;;;;;;;5.63;3.10;;;9.50;99.90;;;;;;5050133;28;20021;-77
2021/01/05 12:16:51;;;;;;;5.25;2.88;;;9.50;99.90;;;;;;5049754;28;20024;-77
2021/01/05 12:19:23;;;;;;;4.65;3.00;;;9.50;99.90;;;;;;5051392;28;20021;-76
2021/01/05 12:21:50;;;;;;;3.55;2.63;;;9.50;99.90;;;;;;5035250;28;20064;-78
2021/01/05 12:24:22;;;;;;;5.88;2.75;;;9.60;99.90;;;;;;5047982;28;20021;-78
2021/01/05 12:26:48;;;;;;;7.47;3.55;;;9.50;99.90;;;;;;5050529;28;20032;-77
2021/01/05 12:29:20;;;;;;;5.82;3.28;;;9.50;99.90;;;;;;5049637;28;20029;-77
2021/01/05 12:31:49;;;;;;;4.10;2.97;;;9.60;99.90;;;;;;5051687;28;20032;-77
2021/01/05 12:34:18;;;;;;;5.90;3.08;;;9.50;99.90;;;;;;5048789;28;20028;-78
2021/01/05 12:36:44;;;;;;;4.22;3.08;;;9.50;99.90;;;;;;5049990;28;20060;-78
2021/01/05 12:39:20;;;;;;;4.75;3.03;;;9.60;99.90;;;;;;5049738;28;20530;-78
2021/01/05 12:41:46;;;;;;;4.57;3.15;;;9.60;99.90;;;;;;5042659;28;20381;-77
2021/01/05 12:44:17;;;;;;;6.63;4.05;;;9.60;99.90;;;;;;5048842;28;20021;-77
2021/01/05 12:46:44;;;;;;;9.38;4.07;;;9.60;99.90;;;;;;5048209;28;20485;-77
2021/01/05 12:49:12;;;;;;;5.55;3.33;;;9.60;99.90;;;;;;5042468;28;20157;-76
2021/01/05 12:51:41;;;;;;;3.92;2.70;;;9.60;99.90;;;;;;5028183;28;20025;-77
2021/01/05 12:54:11;;;;;;;3.22;2.80;;;9.70;99.90;;;;;;5032493;28;20080;-78
2021/01/05 12:56:37;;;;;;;4.18;2.90;;;9.70;99.90;;;;;;5043536;28;20043;-77
2021/01/05 12:59:03;;;;;;;5.00;2.78;;;9.70;99.90;;;;;;5049695;28;20489;-77
2021/01/05 13:01:29;;;;;;;4.65;2.97;;;9.70;99.90;;;;;;5048492;28;20032;-78
2021/01/05 13:03:55;;;;;;;7.25;3.17;;;9.80;99.90;;;;;;5045458;28;20025;-78
2021/01/05 13:06:21;;;;;;;7.18;3.60;;;9.80;99.90;;;;;;5045570;28;20041;-77
2021/01/05 13:08:48;;;;;;;8.70;3.90;;;9.80;99.90;;;;;;5041913;28;20037;-77
2021/01/05 13:11:20;;;;;;;4.97;3.35;;;9.80;99.90;;;;;;5048927;28;20029;-77